Time;durP1;ratioP1;P1;durP2;ratioP2;P2;SDS_P1;SDS_P2;PMS_P1;PMS_P2;Temp;Humidity;BMP_temperature;BMP_pressure;BME280_temperature;BME280_humidity;BME280_pressure;Samples;Min_cycle;Max_cycle;Signal;HPM_P1;HPM_P2
2021/09/21 00:00:57;;;;;;;1.70;0.67;;;13.50;99.90;;;;;;5077860;28;20219;-81
2021/09/21 00:03:22;;;;;;;0.27;0.27;;;13.50;99.90;;;;;;5094426;28;20211;-82
2021/09/21 00:05:48;;;;;;;0.40;0.40;;;13.50;99.90;;;;;;5082403;28;20602;-81
2021/09/21 00:08:13;;;;;;;0.47;0.47;;;13.50;99.90;;;;;;5079135;28;20538;-81
2021/09/21 00:10:39;;;;;;;1.03;0.50;;;13.40;99.90;;;;;;5086667;28;20264;-81
2021/09/21 00:13:05;;;;;;;0.43;0.43;;;13.40;99.90;;;;;;5083315;28;20208;-82
2021/09/21 00:15:30;;;;;;;1.30;0.80;;;13.40;99.90;;;;;;5089486;28;20184;-81
2021/09/21 00:17:56;;;;;;;0.77;0.47;;;13.30;99.90;;;;;;5088241;28;20173;-81
2021/09/21 00:20:21;;;;;;;0.27;0.27;;;13.40;99.90;;;;;;5080251;28;20239;-81
2021/09/21 00:22:47;;;;;;;0.87;0.83;;;13.40;99.90;;;;;;5078254;28;20570;-81
2021/09/21 00:25:14;;;;;;;0.30;0.30;;;13.30;99.90;;;;;;5088409;28;20197;-81
2021/09/21 00:27:44;;;;;;;1.07;0.30;;;13.40;99.90;;;;;;5087025;28;20204;-81
2021/09/21 00:30:12;;;;;;;0.80;0.80;;;13.40;99.90;;;;;;5085113;28;20257;-81
2021/09/21 00:32:37;;;;;;;1.10;0.83;;;13.40;99.90;;;;;;5075332;28;20205;-81
2021/09/21 00:35:04;;;;;;;0.60;0.60;;;13.30;99.90;;;;;;5091362;28;20211;-81
2021/09/21 00:37:29;;;;;;;0.60;0.60;;;13.30;99.90;;;;;;5077981;28;20188;-81
2021/09/21 00:39:55;;;;;;;1.30;0.70;;;13.30;99.90;;;;;;5080451;28;20619;-81
2021/09/21 00:42:28;;;;;;;0.47;0.37;;;13.20;99.90;;;;;;5083203;28;20200;-81
2021/09/21 00:45:00;;;;;;;0.87;0.67;;;13.20;99.90;;;;;;5082906;28;20187;-81
2021/09/21 00:47:26;;;;;;;0.50;0.40;;;13.20;99.90;;;;;;5083374;28;20552;-81
2021/09/21 00:49:52;;;;;;;0.33;0.33;;;13.20;99.90;;;;;;5083155;28;20180;-81
2021/09/21 00:52:18;;;;;;;0.40;0.40;;;13.30;99.90;;;;;;5083897;28;20253;-81
2021/09/21 00:54:44;;;;;;;0.50;0.50;;;13.30;99.90;;;;;;5086424;28;20646;-81
2021/09/21 00:57:11;;;;;;;1.00;0.60;;;13.30;99.90;;;;;;5084737;28;20231;-81
2021/09/21 00:59:36;;;;;;;0.83;0.53;;;13.30;99.90;;;;;;5075173;28;20642;-81
2021/09/21 01:02:02;;;;;;;2.70;0.70;;;13.30;99.90;;;;;;5091332;28;20211;-82
2021/09/21 01:04:28;;;;;;;1.30;0.83;;;13.20;99.90;;;;;;5090712;28;20187;-81
2021/09/21 01:06:53;;;;;;;0.93;0.90;;;13.20;99.90;;;;;;5079033;28;20203;-81
2021/09/21 01:09:20;;;;;;;0.50;0.50;;;13.20;99.90;;;;;;5082064;28;20196;-81
2021/09/21 01:11:51;;;;;;;0.60;0.47;;;13.20;99.90;;;;;;5097890;28;20633;-82
2021/09/21 01:14:17;;;;;;;0.50;0.50;;;13.20;99.90;;;;;;5084391;28;20179;-81
2021/09/21 01:16:43;;;;;;;0.50;0.50;;;13.20;99.90;;;;;;5075209;28;20174;-82
2021/09/21 01:19:13;;;;;;;0.53;0.40;;;13.20;99.90;;;;;;5087788;28;20172;-81
2021/09/21 01:21:43;;;;;;;0.50;0.50;;;13.20;99.90;;;;;;5078428;28;20553;-81
2021/09/21 01:24:10;;;;;;;0.83;0.60;;;13.20;99.90;;;;;;5082983;28;20274;-81
2021/09/21 01:26:36;;;;;;;0.20;0.20;;;13.20;99.90;;;;;;5091133;28;20250;-81
2021/09/21 01:29:03;;;;;;;0.30;0.30;;;13.20;99.90;;;;;;5075635;28;20180;-81
2021/09/21 01:31:29;;;;;;;0.30;0.30;;;13.20;99.90;;;;;;5075969;28;20692;-82
2021/09/21 01:33:55;;;;;;;0.53;0.53;;;13.20;99.90;;;;;;5087176;28;20180;-81
2021/09/21 01:36:23;;;;;;;1.07;0.47;;;13.10;99.90;;;;;;5087893;28;20211;-81
2021/09/21 01:38:50;;;;;;;0.33;0.20;;;13.10;99.90;;;;;;5092894;28;20184;-81
2021/09/21 01:41:16;;;;;;;0.50;0.50;;;13.10;99.90;;;;;;5087184;28;20204;-81
2021/09/21 01:43:44;;;;;;;0.50;0.37;;;13.10;99.90;;;;;;5091895;28;20191;-81
2021/09/21 01:46:10;;;;;;;0.40;0.30;;;13.20;99.90;;;;;;5082361;28;20184;-81
2021/09/21 01:48:36;;;;;;;0.50;0.50;;;13.10;99.90;;;;;;5082078;28;20195;-81
2021/09/21 01:51:05;;;;;;;0.73;0.50;;;13.00;99.90;;;;;;5083641;28;20204;-81
2021/09/21 01:58:52;;;;;;;0.40;0.40;;;13.00;99.90;;;;;;5080803;28;20195;-81
2021/09/21 02:01:21;;;;;;;0.70;0.20;;;13.00;99.90;;;;;;5088687;28;20653;-81
2021/09/21 02:03:49;;;;;;;0.20;0.20;;;13.00;99.90;;;;;;5085753;28;20244;-81
2021/09/21 02:06:15;;;;;;;0.30;0.30;;;13.00;99.90;;;;;;5085721;28;20183;-81
2021/09/21 02:08:40;;;;;;;0.57;0.30;;;13.00;99.90;;;;;;5091155;28;20185;-81
2021/09/21 02:11:07;;;;;;;0.37;0.37;;;12.90;99.90;;;;;;5085469;28;20215;-81
2021/09/21 02:13:33;;;;;;;0.23;0.23;;;12.90;99.90;;;;;;5083400;28;20181;-81
2021/09/21 02:16:00;;;;;;;0.37;0.37;;;12.90;99.90;;;;;;5086403;28;20173;-81
2021/09/21 02:18:25;;;;;;;0.60;0.60;;;12.90;99.90;;;;;;5087860;28;20230;-81
2021/09/21 02:20:52;;;;;;;2.20;1.87;;;12.90;99.90;;;;;;5086673;28;20614;-81
2021/09/21 02:23:18;;;;;;;1.33;0.80;;;12.90;99.90;;;;;;5087282;28;20180;-81
2021/09/21 02:25:43;;;;;;;0.40;0.30;;;12.90;99.90;;;;;;5090365;28;20180;-81
2021/09/21 02:28:09;;;;;;;0.50;0.50;;;12.80;99.90;;;;;;5084158;28;20419;-82
2021/09/21 02:30:35;;;;;;;1.57;0.53;;;12.80;99.90;;;;;;5094421;28;20232;-81
2021/09/21 02:33:02;;;;;;;1.60;0.83;;;12.80;99.90;;;;;;5081430;28;20177;-81
2021/09/21 02:35:27;;;;;;;0.77;0.33;;;12.90;99.90;;;;;;5089072;28;20179;-81
2021/09/21 02:37:54;;;;;;;0.30;0.30;;;12.90;99.90;;;;;;5081648;28;20551;-81
2021/09/21 02:40:20;;;;;;;0.80;0.50;;;12.90;99.90;;;;;;5083387;28;20270;-81
2021/09/21 02:42:46;;;;;;;0.57;0.57;;;13.00;99.90;;;;;;5088701;28;20681;-81
2021/09/21 02:45:12;;;;;;;0.27;0.27;;;12.90;99.90;;;;;;5084471;28;20233;-81
2021/09/21 02:47:38;;;;;;;0.10;0.10;;;13.00;99.90;;;;;;5084605;28;20228;-81
2021/09/21 02:50:05;;;;;;;0.37;0.30;;;13.00;99.90;;;;;;5085519;28;20875;-82
2021/09/21 02:52:31;;;;;;;0.83;0.27;;;13.00;99.90;;;;;;5086990;28;20580;-81
2021/09/21 02:54:56;;;;;;;0.50;0.40;;;12.90;99.90;;;;;;5089281;28;20177;-81
2021/09/21 02:57:22;;;;;;;0.27;0.20;;;12.90;99.90;;;;;;5082071;28;20211;-81
2021/09/21 02:59:48;;;;;;;0.30;0.30;;;12.90;99.90;;;;;;5083201;28;20180;-81
2021/09/21 03:02:14;;;;;;;0.20;0.20;;;13.00;99.90;;;;;;5086934;28;20193;-81
2021/09/21 03:04:48;;;;;;;0.77;0.63;;;12.90;99.90;;;;;;5089214;28;20691;-81
2021/09/21 03:07:15;;;;;;;0.43;0.30;;;12.90;99.90;;;;;;5081065;28;20192;-81
2021/09/21 03:09:53;;;;;;;0.47;0.43;;;12.90;99.90;;;;;;5082112;28;20202;-81
2021/09/21 03:17:45;;;;;;;0.30;0.30;;;12.90;99.90;;;;;;5090856;28;20213;-81
2021/09/21 03:20:11;;;;;;;0.27;0.20;;;12.90;99.90;;;;;;5081823;28;20293;-81
2021/09/21 03:22:36;;;;;;;0.20;0.20;;;12.90;99.90;;;;;;5077207;28;20281;-81
2021/09/21 03:25:03;;;;;;;0.30;0.30;;;12.90;99.90;;;;;;5092028;28;20592;-81
2021/09/21 03:27:28;;;;;;;0.67;0.50;;;12.90;99.90;;;;;;5083953;28;20204;-81
2021/09/21 03:29:54;;;;;;;0.20;0.20;;;12.80;99.90;;;;;;5092154;28;20177;-81
2021/09/21 03:32:20;;;;;;;0.50;0.50;;;12.90;99.90;;;;;;5083808;28;20714;-81
2021/09/21 03:34:45;;;;;;;0.10;0.10;;;12.90;99.90;;;;;;5075856;28;20185;-81
2021/09/21 03:37:11;;;;;;;0.13;0.13;;;12.80;99.90;;;;;;5085706;28;20193;-81
2021/09/21 03:39:38;;;;;;;0.37;0.37;;;12.70;99.90;;;;;;5083805;28;20277;-82
2021/09/21 03:42:04;;;;;;;0.17;0.17;;;12.80;99.90;;;;;;5083618;28;20210;-81
2021/09/21 03:44:30;;;;;;;0.20;0.20;;;12.80;99.90;;;;;;5065100;28;20192;-81
2021/09/21 03:46:56;;;;;;;0.20;0.20;;;12.80;99.90;;;;;;5065058;28;20189;-81
2021/09/21 03:49:23;;;;;;;0.17;0.17;;;12.70;99.90;;;;;;5067630;28;20645;-81
2021/09/21 03:51:49;;;;;;;0.20;0.20;;;12.70;99.90;;;;;;5067391;28;20217;-81
2021/09/21 03:54:15;;;;;;;0.30;0.20;;;12.70;99.90;;;;;;5082555;28;20271;-81
2021/09/21 03:56:41;;;;;;;0.20;0.20;;;12.90;99.90;;;;;;5076987;28;20271;-81
2021/09/21 03:59:07;;;;;;;0.93;0.50;;;12.80;99.90;;;;;;5072535;28;20180;-81
2021/09/21 04:01:34;;;;;;;0.33;0.33;;;12.70;99.90;;;;;;5082726;28;20202;-81
2021/09/21 04:04:00;;;;;;;0.43;0.43;;;12.80;99.90;;;;;;5080110;28;20795;-81
2021/09/21 04:06:26;;;;;;;0.30;0.30;;;12.70;99.90;;;;;;5084143;28;20184;-81
2021/09/21 04:08:53;;;;;;;0.37;0.37;;;12.70;99.90;;;;;;5066484;28;20181;-81
2021/09/21 04:11:20;;;;;;;0.40;0.40;;;12.70;99.90;;;;;;5086102;28;20213;-81
2021/09/21 04:13:46;;;;;;;0.30;0.30;;;12.60;99.90;;;;;;5080184;28;20205;-81
2021/09/21 04:16:11;;;;;;;0.87;0.60;;;12.60;99.90;;;;;;5088973;28;20226;-81
2021/09/21 04:18:37;;;;;;;0.30;0.30;;;12.60;99.90;;;;;;5077572;28;20200;-81
2021/09/21 04:21:03;;;;;;;0.30;0.30;;;12.50;99.90;;;;;;5080431;28;20205;-81
2021/09/21 04:23:29;;;;;;;0.37;0.37;;;12.60;99.90;;;;;;5089670;28;20176;-81
2021/09/21 04:25:55;;;;;;;0.10;0.10;;;12.60;99.90;;;;;;5073940;28;20184;-81
2021/09/21 04:28:21;;;;;;;0.20;0.20;;;12.60;99.90;;;;;;5063612;28;20203;-81
2021/09/21 04:30:48;;;;;;;0.30;0.30;;;12.60;99.90;;;;;;5088681;28;20211;-81
2021/09/21 04:33:14;;;;;;;0.30;0.30;;;12.60;99.90;;;;;;5081424;28;20181;-81
2021/09/21 04:35:41;;;;;;;0.50;0.50;;;12.50;99.90;;;;;;5078910;28;20182;-81
2021/09/21 04:38:08;;;;;;;0.20;0.20;;;12.50;99.90;;;;;;5081098;28;20183;-81
2021/09/21 04:40:33;;;;;;;0.43;0.37;;;12.50;99.90;;;;;;5071295;28;20208;-81
2021/09/21 04:42:59;;;;;;;0.83;0.33;;;12.50;99.90;;;;;;5084847;28;20204;-81
2021/09/21 04:45:25;;;;;;;0.70;0.50;;;12.50;99.90;;;;;;5076922;28;20182;-81
2021/09/21 04:47:50;;;;;;;0.10;0.10;;;12.40;99.90;;;;;;5088454;28;20657;-81
2021/09/21 04:50:16;;;;;;;0.13;0.13;;;12.50;99.90;;;;;;5083211;28;20196;-81
2021/09/21 04:52:41;;;;;;;0.57;0.57;;;12.50;99.90;;;;;;5072512;28;20259;-81
2021/09/21 04:55:08;;;;;;;0.50;0.40;;;12.50;99.90;;;;;;5080725;28;20191;-81
2021/09/21 04:57:35;;;;;;;0.13;0.13;;;12.40;99.90;;;;;;5086259;28;20214;-81
2021/09/21 05:00:00;;;;;;;0.30;0.30;;;12.40;99.90;;;;;;5081702;28;20189;-82
2021/09/21 05:02:26;;;;;;;0.93;0.70;;;12.30;99.90;;;;;;5083908;28;20576;-81
2021/09/21 05:04:51;;;;;;;0.23;0.13;;;12.30;99.90;;;;;;5088648;28;20174;-81
2021/09/21 05:07:17;;;;;;;0.47;0.43;;;12.20;99.90;;;;;;5088013;28;20184;-81
2021/09/21 05:09:43;;;;;;;0.40;0.13;;;12.10;99.90;;;;;;5082296;28;20201;-81
2021/09/21 05:12:08;;;;;;;0.40;0.40;;;11.90;99.90;;;;;;5085608;28;20207;-81
2021/09/21 05:14:34;;;;;;;0.97;0.20;;;11.90;99.90;;;;;;5091008;28;20184;-81
2021/09/21 05:17:00;;;;;;;0.50;0.50;;;11.80;99.90;;;;;;5087591;28;20217;-82
2021/09/21 05:19:26;;;;;;;0.47;0.47;;;11.80;99.90;;;;;;5099030;28;20207;-82
2021/09/21 05:21:52;;;;;;;0.13;0.13;;;11.80;99.90;;;;;;5079538;28;20693;-82
2021/09/21 05:24:17;;;;;;;0.20;0.20;;;11.80;99.90;;;;;;5092065;28;20696;-81
2021/09/21 05:26:43;;;;;;;0.53;0.30;;;11.80;99.90;;;;;;5074408;28;20226;-81
2021/09/21 05:29:09;;;;;;;0.30;0.30;;;11.70;99.90;;;;;;5094161;28;20270;-81
2021/09/21 05:31:34;;;;;;;0.10;0.10;;;11.70;99.90;;;;;;5085844;28;20267;-81
2021/09/21 05:34:01;;;;;;;0.50;0.50;;;11.70;99.90;;;;;;5093413;28;20195;-81
2021/09/21 05:36:27;;;;;;;0.30;0.30;;;11.70;99.90;;;;;;5086197;28;20185;-81
2021/09/21 05:38:52;;;;;;;0.33;0.23;;;11.70;99.90;;;;;;5080526;28;20209;-82
2021/09/21 05:41:18;;;;;;;0.10;0.10;;;11.70;99.90;;;;;;5078145;28;20677;-81
2021/09/21 05:43:43;;;;;;;0.23;0.23;;;11.70;99.90;;;;;;5081919;28;20188;-83
2021/09/21 05:46:09;;;;;;;0.20;0.20;;;11.70;99.90;;;;;;5075280;28;20260;-84
2021/09/21 05:48:35;;;;;;;0.40;0.40;;;11.60;99.90;;;;;;5075503;28;20191;-83
2021/09/21 05:51:00;;;;;;;0.20;0.20;;;11.60;99.90;;;;;;5089954;28;20654;-81
2021/09/21 05:53:26;;;;;;;0.33;0.33;;;11.60;99.90;;;;;;5074793;28;20189;-81
2021/09/21 05:55:52;;;;;;;0.17;0.17;;;11.60;99.90;;;;;;5082303;28;20184;-80
2021/09/21 05:58:17;;;;;;;0.10;0.10;;;11.60;99.90;;;;;;5082819;28;20270;-83
2021/09/21 06:00:43;;;;;;;0.20;0.20;;;11.60;99.90;;;;;;5074646;28;20241;-83
2021/09/21 06:03:09;;;;;;;0.97;0.40;;;11.60;99.90;;;;;;5067748;28;20188;-82
2021/09/21 06:05:34;;;;;;;0.50;0.50;;;11.70;99.90;;;;;;5067026;28;20661;-81
2021/09/21 06:08:00;;;;;;;1.07;0.30;;;11.70;99.90;;;;;;5093517;28;20335;-82
2021/09/21 06:10:27;;;;;;;1.83;0.70;;;11.70;99.90;;;;;;5091465;28;20243;-81
2021/09/21 06:12:52;;;;;;;0.30;0.20;;;11.80;99.90;;;;;;5082091;28;20215;-82
2021/09/21 06:15:19;;;;;;;0.20;0.20;;;11.80;99.90;;;;;;5081258;28;20667;-81
2021/09/21 06:17:46;;;;;;;0.20;0.20;;;11.90;99.90;;;;;;5086155;28;20210;-81
2021/09/21 06:20:13;;;;;;;0.23;0.23;;;12.00;99.90;;;;;;5081790;28;20223;-82
2021/09/21 06:22:40;;;;;;;0.20;0.20;;;12.00;99.90;;;;;;5092428;28;20215;-82
2021/09/21 06:25:07;;;;;;;0.40;0.40;;;12.00;99.90;;;;;;5075886;28;20650;-81
2021/09/21 06:27:34;;;;;;;0.37;0.37;;;12.00;99.90;;;;;;5066423;28;20236;-82
2021/09/21 06:30:01;;;;;;;0.10;0.10;;;12.10;99.90;;;;;;5086228;28;20191;-82
2021/09/21 06:32:28;;;;;;;0.30;0.30;;;12.20;99.90;;;;;;5079429;28;20618;-82
2021/09/21 06:34:53;;;;;;;0.10;0.10;;;12.30;99.90;;;;;;5083315;28;20661;-82
2021/09/21 06:37:19;;;;;;;0.23;0.23;;;12.30;99.90;;;;;;5081888;28;20187;-81
2021/09/21 06:39:44;;;;;;;0.13;0.13;;;12.50;99.90;;;;;;5075358;28;20688;-81
2021/09/21 06:42:10;;;;;;;0.30;0.30;;;12.60;99.90;;;;;;5085643;28;20274;-82
2021/09/21 06:44:36;;;;;;;0.20;0.20;;;12.70;99.90;;;;;;5077268;28;20195;-81
2021/09/21 06:47:02;;;;;;;0.00;0.00;;;12.80;99.90;;;;;;5087094;28;20186;-81
2021/09/21 06:49:29;;;;;;;0.17;0.17;;;12.90;99.90;;;;;;5085804;28;20654;-81
2021/09/21 06:51:55;;;;;;;0.20;0.20;;;13.00;99.90;;;;;;5061045;28;20224;-82
2021/09/21 06:54:21;;;;;;;0.70;0.70;;;13.10;99.90;;;;;;5084055;28;20184;-81
2021/09/21 06:56:47;;;;;;;0.20;0.20;;;13.20;99.90;;;;;;5090837;28;20206;-81
2021/09/21 06:59:12;;;;;;;0.10;0.10;;;13.30;99.90;;;;;;5081696;28;20195;-82
2021/09/21 07:01:38;;;;;;;0.30;0.30;;;13.50;99.90;;;;;;5068242;28;20213;-83
2021/09/21 07:04:04;;;;;;;0.13;0.13;;;13.70;99.90;;;;;;5062394;28;20185;-83
2021/09/21 07:06:29;;;;;;;0.20;0.20;;;13.80;99.90;;;;;;5074856;28;21233;-82
2021/09/21 07:08:55;;;;;;;0.10;0.10;;;13.90;99.90;;;;;;5072153;28;20180;-83
2021/09/21 07:11:21;;;;;;;0.17;0.17;;;14.20;99.90;;;;;;5065743;28;20262;-83
2021/09/21 07:13:48;;;;;;;0.33;0.33;;;14.40;99.90;;;;;;5085917;28;20173;-83
2021/09/21 07:16:14;;;;;;;0.20;0.20;;;14.20;99.90;;;;;;5080025;28;20179;-83
2021/09/21 07:18:40;;;;;;;0.07;0.07;;;14.30;99.90;;;;;;5073319;28;20185;-83
2021/09/21 07:21:06;;;;;;;0.23;0.20;;;14.30;99.90;;;;;;5074322;28;20291;-81
2021/09/21 07:23:32;;;;;;;1.07;0.23;;;14.50;99.90;;;;;;5078537;28;20268;-81
2021/09/21 07:25:58;;;;;;;0.20;0.20;;;14.40;99.90;;;;;;5063611;28;20714;-81
2021/09/21 07:28:23;;;;;;;0.10;0.10;;;14.50;99.90;;;;;;5086840;28;20188;-81
2021/09/21 07:30:49;;;;;;;0.83;0.50;;;14.50;99.90;;;;;;5089629;28;20208;-81
2021/09/21 07:33:16;;;;;;;0.10;0.10;;;14.70;99.90;;;;;;5080128;28;20648;-81
2021/09/21 07:35:43;;;;;;;0.87;0.10;;;14.70;99.90;;;;;;5081816;28;20176;-81
2021/09/21 07:38:09;;;;;;;0.20;0.20;;;14.50;99.90;;;;;;5085172;28;20183;-81
2021/09/21 07:40:35;;;;;;;0.10;0.10;;;14.50;99.90;;;;;;5082069;28;20840;-81
2021/09/21 07:43:05;;;;;;;0.20;0.20;;;14.60;99.90;;;;;;5083995;28;20227;-81
2021/09/21 07:45:32;;;;;;;0.40;0.40;;;14.70;99.90;;;;;;5088387;28;20658;-82
2021/09/21 07:47:58;;;;;;;0.87;0.60;;;14.80;99.90;;;;;;5083383;28;20249;-81
2021/09/21 07:50:26;;;;;;;0.30;0.30;;;14.80;99.90;;;;;;5072841;28;20348;-82
2021/09/21 07:52:52;;;;;;;0.10;0.10;;;14.90;99.90;;;;;;5078568;28;20185;-82
2021/09/21 07:55:18;;;;;;;0.27;0.23;;;15.30;99.90;;;;;;5085000;28;20177;-82
2021/09/21 07:57:44;;;;;;;0.17;0.17;;;15.60;99.90;;;;;;5083811;28;20651;-82
2021/09/21 08:00:12;;;;;;;0.20;0.20;;;15.50;99.90;;;;;;5068357;28;20173;-82
2021/09/21 08:02:38;;;;;;;0.17;0.17;;;15.60;99.90;;;;;;5083394;28;20735;-82
2021/09/21 08:05:04;;;;;;;0.93;0.60;;;15.60;99.90;;;;;;5087300;28;20182;-82
2021/09/21 08:07:31;;;;;;;0.10;0.10;;;15.40;99.90;;;;;;5080092;28;20551;-82
2021/09/21 08:10:01;;;;;;;0.20;0.20;;;15.40;99.90;;;;;;5087938;28;20170;-83
2021/09/21 08:12:27;;;;;;;1.60;1.50;;;15.50;99.90;;;;;;5068574;28;20254;-82
2021/09/21 08:14:53;;;;;;;0.20;0.20;;;15.40;99.90;;;;;;5084622;28;20667;-81
2021/09/21 08:17:22;;;;;;;0.93;0.60;;;15.40;99.90;;;;;;5077451;28;20185;-81
2021/09/21 08:19:48;;;;;;;0.13;0.13;;;15.40;99.90;;;;;;5085917;28;20199;-81
2021/09/21 08:22:14;;;;;;;0.27;0.20;;;15.60;99.90;;;;;;5066807;28;20295;-81
2021/09/21 08:24:40;;;;;;;0.40;0.40;;;15.70;99.90;;;;;;5078777;28;20210;-81
2021/09/21 08:27:05;;;;;;;0.53;0.53;;;15.80;99.90;;;;;;5069873;28;20205;-83
2021/09/21 08:29:31;;;;;;;0.20;0.20;;;15.70;99.90;;;;;;5081748;28;20187;-83
2021/09/21 08:31:57;;;;;;;0.17;0.17;;;15.50;99.90;;;;;;5087756;28;20236;-83
2021/09/21 08:34:23;;;;;;;2.47;0.30;;;15.70;99.90;;;;;;5078547;28;20178;-83
2021/09/21 08:36:50;;;;;;;0.17;0.17;;;15.70;99.90;;;;;;5076286;28;20195;-82
2021/09/21 08:39:17;;;;;;;0.33;0.33;;;16.00;99.90;;;;;;5097591;28;20178;-83
2021/09/21 08:41:42;;;;;;;0.40;0.40;;;15.80;99.90;;;;;;5072771;28;20207;-82
2021/09/21 08:44:09;;;;;;;0.40;0.30;;;16.20;99.90;;;;;;5083710;28;20261;-82
2021/09/21 08:46:35;;;;;;;0.40;0.27;;;16.40;99.90;;;;;;5081166;28;20227;-82
2021/09/21 08:49:01;;;;;;;0.20;0.20;;;16.20;99.90;;;;;;5088148;28;20189;-83
2021/09/21 08:51:27;;;;;;;0.17;0.17;;;16.50;99.90;;;;;;5084408;28;20765;-82
2021/09/21 08:53:53;;;;;;;0.20;0.20;;;16.50;99.90;;;;;;5068548;28;20195;-82
2021/09/21 08:56:20;;;;;;;0.23;0.23;;;16.40;99.90;;;;;;5076705;28;20179;-83
2021/09/21 08:59:04;;;;;;;0.23;0.23;;;16.30;99.90;;;;;;5069611;28;20220;-83
2021/09/21 09:01:44;;;;;;;0.10;0.10;;;16.20;99.90;;;;;;5077189;28;20791;-83
2021/09/21 09:04:11;;;;;;;0.03;0.03;;;16.50;99.90;;;;;;5074041;28;20182;-83
2021/09/21 09:06:52;;;;;;;0.33;0.33;;;16.90;99.90;;;;;;5063742;28;20206;-84
2021/09/21 09:09:22;;;;;;;0.40;0.40;;;17.10;99.90;;;;;;5065100;28;20192;-82
2021/09/21 09:11:53;;;;;;;0.37;0.23;;;16.90;99.90;;;;;;5075059;28;20219;-83
2021/09/21 09:14:24;;;;;;;0.27;0.27;;;16.80;99.90;;;;;;5084616;28;20211;-82
2021/09/21 09:16:55;;;;;;;0.67;0.37;;;16.80;99.90;;;;;;5084951;28;20180;-82
2021/09/21 09:19:21;;;;;;;0.27;0.20;;;16.90;99.90;;;;;;5071300;28;20188;-82
2021/09/21 09:21:49;;;;;;;0.40;0.40;;;17.10;99.90;;;;;;5089840;28;20212;-83
2021/09/21 09:24:15;;;;;;;0.30;0.30;;;17.20;99.90;;;;;;5082577;28;20243;-84
2021/09/21 09:26:43;;;;;;;1.13;0.63;;;17.30;99.90;;;;;;5084655;28;20196;-85
2021/09/21 09:29:14;;;;;;;0.27;0.27;;;17.60;99.90;;;;;;5074192;28;20181;-83
2021/09/21 09:31:42;;;;;;;0.40;0.40;;;17.70;99.90;;;;;;5086435;28;20213;-84
2021/09/21 09:34:13;;;;;;;0.47;0.47;;;17.40;99.90;;;;;;5081778;28;20206;-84
2021/09/21 09:36:54;;;;;;;0.20;0.20;;;17.20;99.90;;;;;;5072979;28;20235;-84
2021/09/21 09:39:22;;;;;;;0.33;0.20;;;17.60;99.90;;;;;;5065576;28;20182;-84
2021/09/21 09:41:51;;;;;;;0.77;0.77;;;18.10;99.90;;;;;;5069497;28;20209;-84
2021/09/21 09:44:23;;;;;;;1.30;0.93;;;17.90;99.90;;;;;;5074392;28;20189;-84
2021/09/21 09:46:52;;;;;;;0.20;0.20;;;17.60;99.90;;;;;;5085062;28;20257;-83
2021/09/21 09:49:45;;;;;;;2.17;0.20;;;18.10;99.90;;;;;;5072488;28;20198;-83
2021/09/21 09:52:16;;;;;;;0.63;0.50;;;18.30;99.90;;;;;;5069236;28;20593;-83
2021/09/21 09:54:44;;;;;;;0.60;0.60;;;18.10;99.90;;;;;;5093912;28;20251;-83
2021/09/21 09:57:11;;;;;;;0.20;0.20;;;18.00;99.90;;;;;;5090501;28;20656;-84
2021/09/21 09:59:38;;;;;;;0.33;0.33;;;17.80;99.90;;;;;;5072896;28;20181;-82
2021/09/21 10:02:05;;;;;;;0.40;0.40;;;17.70;99.90;;;;;;5084955;28;20287;-82
2021/09/21 10:04:31;;;;;;;0.87;0.40;;;17.50;99.90;;;;;;5094508;28;20697;-83
2021/09/21 10:06:57;;;;;;;0.23;0.23;;;17.30;99.90;;;;;;5087083;28;20185;-83
2021/09/21 10:09:23;;;;;;;0.33;0.33;;;17.60;99.90;;;;;;5086868;28;20177;-83
2021/09/21 10:11:53;;;;;;;0.37;0.37;;;18.30;99.90;;;;;;5083469;28;20204;-82
2021/09/21 10:14:20;;;;;;;0.20;0.20;;;17.60;99.90;;;;;;5081886;28;20198;-82
2021/09/21 10:17:05;;;;;;;0.33;0.30;;;17.90;99.90;;;;;;5065461;28;20182;-83
2021/09/21 10:19:34;;;;;;;0.20;0.20;;;17.90;99.90;;;;;;5075270;28;20178;-82
2021/09/21 10:22:01;;;;;;;0.23;0.23;;;17.80;99.90;;;;;;5078543;28;20208;-82
2021/09/21 10:24:52;;;;;;;0.40;0.40;;;18.20;99.90;;;;;;5066916;28;20215;-83
2021/09/21 10:27:23;;;;;;;1.43;0.20;;;18.20;99.90;;;;;;5071955;28;20205;-83
2021/09/21 10:30:07;;;;;;;0.20;0.20;;;18.50;99.90;;;;;;5072904;28;20532;-83
2021/09/21 10:32:45;;;;;;;0.50;0.40;;;19.00;99.90;;;;;;5076457;28;20663;-83
2021/09/21 10:35:13;;;;;;;0.20;0.20;;;18.90;99.90;;;;;;5074357;28;20272;-83
2021/09/21 10:37:40;;;;;;;0.20;0.20;;;18.40;99.90;;;;;;5082294;28;20255;-83
2021/09/21 10:40:07;;;;;;;0.30;0.30;;;19.40;99.90;;;;;;5074040;28;20184;-83
2021/09/21 10:42:34;;;;;;;0.17;0.10;;;19.30;99.90;;;;;;5070786;28;20202;-82
2021/09/21 10:45:03;;;;;;;2.57;0.97;;;18.10;99.90;;;;;;5079928;28;20688;-83
2021/09/21 10:47:31;;;;;;;0.70;0.40;;;18.80;99.90;;;;;;5081214;28;20188;-83
2021/09/21 10:50:23;;;;;;;0.20;0.20;;;18.70;99.90;;;;;;5065917;28;20184;-83
2021/09/21 10:52:48;;;;;;;6.77;1.43;;;18.80;99.90;;;;;;5073613;28;20227;-83
2021/09/21 10:55:17;;;;;;;0.80;0.47;;;19.40;99.90;;;;;;5076403;28;20662;-83
2021/09/21 10:57:47;;;;;;;0.20;0.20;;;19.80;99.90;;;;;;5088843;28;20672;-82
2021/09/21 11:00:21;;;;;;;0.37;0.37;;;19.60;99.90;;;;;;5072107;28;20680;-83
2021/09/21 11:02:54;;;;;;;0.30;0.30;;;19.60;99.90;;;;;;5086223;28;20267;-83
2021/09/21 11:05:26;;;;;;;0.43;0.30;;;20.20;99.90;;;;;;5078570;28;20200;-83
2021/09/21 11:07:59;;;;;;;0.23;0.23;;;19.20;99.90;;;;;;5073509;28;20186;-83
2021/09/21 11:10:29;;;;;;;0.33;0.33;;;18.60;99.90;;;;;;5078928;28;20230;-83
2021/09/21 11:12:55;;;;;;;0.20;0.20;;;18.50;99.90;;;;;;5075968;28;20312;-83
2021/09/21 11:15:25;;;;;;;0.70;0.50;;;18.30;99.90;;;;;;5073078;28;20685;-83
2021/09/21 11:18:01;;;;;;;0.47;0.40;;;17.80;99.90;;;;;;5084659;28;20182;-83
2021/09/21 11:20:27;;;;;;;0.50;0.50;;;17.80;99.90;;;;;;5068798;28;20185;-83
2021/09/21 11:22:53;;;;;;;0.20;0.20;;;18.10;99.90;;;;;;5085070;28;20664;-83
2021/09/21 11:25:18;;;;;;;0.80;0.80;;;18.70;99.90;;;;;;5085174;28;20184;-83
2021/09/21 11:27:44;;;;;;;0.20;0.20;;;18.40;99.90;;;;;;5089885;28;20197;-83
2021/09/21 11:30:17;;;;;;;0.30;0.30;;;18.30;99.90;;;;;;5082291;28;20541;-84
2021/09/21 11:32:44;;;;;;;0.33;0.33;;;18.40;99.90;;;;;;5084214;28;20165;-82
2021/09/21 11:35:12;;;;;;;0.30;0.30;;;19.00;99.90;;;;;;5076818;28;20176;-83
2021/09/21 11:37:40;;;;;;;0.20;0.20;;;18.30;99.90;;;;;;5083014;28;20178;-82
2021/09/21 11:40:07;;;;;;;0.20;0.20;;;18.30;99.90;;;;;;5073083;28;20582;-82
2021/09/21 11:42:34;;;;;;;0.50;0.50;;;18.00;99.90;;;;;;5071666;28;20210;-82
2021/09/21 11:45:01;;;;;;;0.40;0.40;;;18.60;99.90;;;;;;5081582;28;20181;-83
2021/09/21 11:47:47;;;;;;;0.20;0.20;;;18.60;99.90;;;;;;5073226;28;20190;-82
2021/09/21 11:50:17;;;;;;;0.23;0.20;;;18.60;99.90;;;;;;5077908;28;20172;-81
2021/09/21 11:52:48;;;;;;;0.10;0.10;;;18.70;99.90;;;;;;5080766;28;20226;-82
2021/09/21 11:55:16;;;;;;;0.20;0.20;;;18.80;99.90;;;;;;5086377;28;20227;-82
2021/09/21 11:57:43;;;;;;;0.30;0.30;;;18.60;99.90;;;;;;5083986;28;20663;-82
2021/09/21 12:00:25;;;;;;;0.40;0.40;;;18.10;99.90;;;;;;5086224;28;20262;-82
2021/09/21 12:02:59;;;;;;;0.30;0.30;;;17.60;99.90;;;;;;5086485;28;20169;-82
2021/09/21 12:05:27;;;;;;;0.37;0.37;;;17.80;99.90;;;;;;5084180;28;20633;-82
2021/09/21 12:07:54;;;;;;;0.17;0.17;;;17.40;99.90;;;;;;5107673;28;20657;-82
2021/09/21 12:10:23;;;;;;;0.17;0.13;;;17.80;99.90;;;;;;5090075;28;20623;-82
2021/09/21 12:13:15;;;;;;;0.60;0.30;;;18.00;99.90;;;;;;5091903;28;20179;-82
2021/09/21 12:15:43;;;;;;;0.13;0.13;;;18.10;99.90;;;;;;5088083;28;20218;-82
2021/09/21 12:18:11;;;;;;;0.10;0.10;;;18.00;99.90;;;;;;5079657;28;20197;-82
2021/09/21 12:20:38;;;;;;;0.33;0.27;;;18.10;99.90;;;;;;5082889;28;20274;-82
2021/09/21 12:23:05;;;;;;;0.73;0.20;;;18.70;99.90;;;;;;5087239;28;20226;-82
2021/09/21 12:25:32;;;;;;;0.20;0.20;;;18.70;99.90;;;;;;5090358;28;20184;-82
2021/09/21 12:28:00;;;;;;;0.40;0.30;;;19.00;99.90;;;;;;5086701;28;20195;-82
2021/09/21 12:30:29;;;;;;;0.20;0.20;;;18.80;99.90;;;;;;5091416;28;20217;-82
2021/09/21 12:32:59;;;;;;;0.87;0.73;;;19.00;99.90;;;;;;5070332;28;20181;-82
2021/09/21 12:35:28;;;;;;;0.30;0.30;;;18.80;99.90;;;;;;5089775;28;20462;-82
2021/09/21 12:38:02;;;;;;;0.30;0.30;;;18.80;99.90;;;;;;5093896;28;20626;-82
2021/09/21 12:40:28;;;;;;;0.10;0.10;;;19.30;99.90;;;;;;5080663;28;20259;-82
2021/09/21 12:42:54;;;;;;;0.20;0.20;;;19.90;99.90;;;;;;5085498;28;20621;-82
2021/09/21 12:45:19;;;;;;;0.10;0.10;;;19.40;99.90;;;;;;5078777;28;20185;-82
2021/09/21 12:47:45;;;;;;;0.20;0.20;;;19.60;99.90;;;;;;5084947;28;20428;-82
2021/09/21 12:50:21;;;;;;;0.73;0.33;;;18.70;99.90;;;;;;5089659;28;20194;-82
2021/09/21 12:52:59;;;;;;;1.33;0.40;;;19.30;99.90;;;;;;5072790;28;20185;-82
2021/09/21 12:55:36;;;;;;;0.27;0.27;;;18.90;99.90;;;;;;5085237;28;20181;-82
2021/09/21 12:58:03;;;;;;;3.10;0.73;;;18.20;99.90;;;;;;5078646;28;20171;-82
2021/09/21 13:00:40;;;;;;;0.37;0.30;;;18.50;99.90;;;;;;5074741;28;20181;-82